Time;durP1;ratioP1;P1;durP2;ratioP2;P2;SDS_P1;SDS_P2;PMS_P1;PMS_P2;Temp;Humidity;BMP_temperature;BMP_pressure;BME280_temperature;BME280_humidity;BME280_pressure;Samples;Min_cycle;Max_cycle;Signal;HPM_P1;HPM_P2
2021/11/25 00:02:00;;;;;;;1.00;1.00;;;9.50;99.90;;;;;;5052628;28;20220;-72
2021/11/25 00:04:29;;;;;;;2.17;1.27;;;9.50;99.90;;;;;;5056953;28;20271;-73
2021/11/25 00:06:56;;;;;;;1.30;1.20;;;9.50;99.90;;;;;;5056817;28;20718;-72
2021/11/25 00:09:23;;;;;;;1.10;1.00;;;9.50;99.90;;;;;;5061270;28;20632;-72
2021/11/25 00:11:50;;;;;;;1.33;1.20;;;9.50;99.90;;;;;;5049342;28;20618;-72
2021/11/25 00:14:17;;;;;;;2.30;1.60;;;9.50;99.90;;;;;;5054317;28;20241;-73
2021/11/25 00:16:46;;;;;;;1.20;1.10;;;9.60;99.90;;;;;;5051417;28;20208;-72
2021/11/25 00:19:13;;;;;;;1.40;1.30;;;9.50;99.90;;;;;;5061505;28;20256;-72
2021/11/25 00:21:42;;;;;;;1.53;1.37;;;9.50;99.90;;;;;;5045795;28;20219;-73
2021/11/25 00:24:09;;;;;;;2.40;1.10;;;9.50;99.90;;;;;;5052413;28;20207;-72
2021/11/25 00:26:38;;;;;;;1.27;1.13;;;9.50;99.90;;;;;;5042271;28;20240;-73
2021/11/25 00:29:06;;;;;;;1.30;1.20;;;9.40;99.90;;;;;;5050807;28;20310;-72
2021/11/25 00:31:33;;;;;;;1.37;1.27;;;9.50;99.90;;;;;;5040229;28;20224;-72
2021/11/25 00:34:01;;;;;;;1.20;1.00;;;9.40;99.90;;;;;;5039265;28;20211;-72
2021/11/25 00:36:28;;;;;;;0.90;0.90;;;9.40;99.90;;;;;;5064857;28;20784;-72
2021/11/25 00:38:56;;;;;;;1.40;1.30;;;9.40;99.90;;;;;;5063055;28;20227;-72
2021/11/25 00:41:23;;;;;;;1.03;1.03;;;9.40;99.90;;;;;;5057502;28;20225;-72
2021/11/25 00:43:50;;;;;;;1.37;1.27;;;9.30;99.90;;;;;;5058116;28;20248;-72
2021/11/25 00:46:18;;;;;;;1.50;1.40;;;9.30;99.90;;;;;;5066592;28;20261;-73
2021/11/25 00:48:45;;;;;;;1.60;1.50;;;9.30;99.90;;;;;;5063329;28;20294;-72
2021/11/25 00:51:12;;;;;;;1.10;1.10;;;9.30;99.90;;;;;;5064837;28;20202;-72
2021/11/25 00:53:39;;;;;;;1.60;1.50;;;9.20;99.90;;;;;;5064619;28;20213;-73
2021/11/25 00:56:08;;;;;;;1.50;1.40;;;9.30;99.90;;;;;;5064321;28;20229;-72
2021/11/25 00:58:35;;;;;;;1.37;1.23;;;9.20;99.90;;;;;;5060693;28;20258;-72
2021/11/25 01:01:02;;;;;;;1.60;1.10;;;9.20;99.90;;;;;;5080295;28;20562;-72
2021/11/25 01:03:29;;;;;;;1.00;0.90;;;9.20;99.90;;;;;;5049361;28;20247;-73
2021/11/25 01:05:56;;;;;;;1.40;1.30;;;9.20;99.90;;;;;;5061231;28;20199;-73
2021/11/25 01:08:24;;;;;;;1.47;1.37;;;9.20;99.90;;;;;;5057796;28;20210;-73
2021/11/25 01:10:51;;;;;;;1.47;1.37;;;9.20;99.90;;;;;;5060860;28;20587;-72
2021/11/25 01:13:19;;;;;;;1.37;1.27;;;9.20;99.90;;;;;;5056458;28;20250;-72
2021/11/25 01:15:47;;;;;;;1.30;1.20;;;9.20;99.90;;;;;;5060020;28;20313;-72
2021/11/25 01:18:16;;;;;;;1.33;1.23;;;9.10;99.90;;;;;;5053065;28;20296;-72
2021/11/25 01:20:46;;;;;;;1.57;1.47;;;9.10;99.90;;;;;;5059258;28;20256;-72
2021/11/25 01:23:15;;;;;;;1.00;1.00;;;9.10;99.90;;;;;;5058118;28;20199;-72
2021/11/25 01:25:43;;;;;;;1.20;1.10;;;9.10;99.90;;;;;;5059469;28;20647;-72
2021/11/25 01:28:13;;;;;;;1.07;1.07;;;9.10;99.90;;;;;;5047961;28;20300;-72
2021/11/25 01:30:42;;;;;;;1.00;1.00;;;9.10;99.90;;;;;;5056513;28;20235;-72
2021/11/25 01:33:10;;;;;;;0.80;0.80;;;9.20;99.90;;;;;;5044232;28;20244;-72
2021/11/25 01:35:37;;;;;;;1.13;0.93;;;9.20;99.90;;;;;;5063183;28;20215;-72
2021/11/25 01:38:07;;;;;;;1.20;1.00;;;9.20;99.90;;;;;;5068567;28;20215;-72
2021/11/25 01:40:35;;;;;;;1.03;0.93;;;9.20;99.90;;;;;;5064416;28;20367;-72
2021/11/25 01:43:02;;;;;;;0.87;0.87;;;9.20;99.90;;;;;;5069070;28;20203;-72
2021/11/25 01:45:29;;;;;;;0.80;0.80;;;9.20;99.90;;;;;;5064959;28;20204;-72
2021/11/25 01:47:58;;;;;;;1.00;1.00;;;9.20;99.90;;;;;;5068096;28;20248;-72
2021/11/25 01:50:27;;;;;;;0.90;0.90;;;9.30;99.90;;;;;;5060381;28;20198;-72
2021/11/25 01:52:57;;;;;;;1.20;1.10;;;9.30;99.90;;;;;;5045494;28;20264;-72
2021/11/25 01:55:26;;;;;;;0.83;0.83;;;9.20;99.90;;;;;;5060028;28;20244;-72
2021/11/25 01:57:53;;;;;;;1.40;1.00;;;9.30;99.90;;;;;;5063950;28;20240;-71
2021/11/25 02:00:25;;;;;;;1.90;1.33;;;9.30;99.90;;;;;;5056400;28;20199;-72
2021/11/25 02:02:52;;;;;;;0.90;0.90;;;9.30;99.90;;;;;;5057222;28;20203;-72
2021/11/25 02:05:21;;;;;;;1.00;1.00;;;9.30;99.90;;;;;;5049105;28;20632;-72
2021/11/25 02:07:48;;;;;;;1.07;1.00;;;9.20;99.90;;;;;;5060583;28;20212;-72
2021/11/25 02:10:17;;;;;;;1.00;0.90;;;9.20;99.90;;;;;;5052043;28;20672;-72
2021/11/25 02:12:44;;;;;;;0.73;0.73;;;9.20;99.90;;;;;;5060261;28;20672;-73
2021/11/25 02:15:14;;;;;;;0.87;0.87;;;9.20;99.90;;;;;;5051959;28;20327;-72
2021/11/25 02:17:41;;;;;;;0.70;0.70;;;9.20;99.90;;;;;;5059490;28;20195;-72
2021/11/25 02:20:10;;;;;;;0.93;0.93;;;9.10;99.90;;;;;;5056011;28;20272;-72
2021/11/25 02:22:41;;;;;;;0.90;0.90;;;9.10;99.90;;;;;;5054143;28;20229;-72
2021/11/25 02:25:11;;;;;;;1.40;1.10;;;9.10;99.90;;;;;;5042745;28;20249;-73
2021/11/25 02:27:38;;;;;;;1.80;0.80;;;9.10;99.90;;;;;;5050630;28;20262;-72
2021/11/25 02:30:07;;;;;;;0.90;0.90;;;9.10;99.90;;;;;;5045606;28;20325;-72
2021/11/25 02:32:36;;;;;;;0.80;0.80;;;9.20;99.90;;;;;;5045946;28;20203;-72
2021/11/25 02:35:05;;;;;;;0.67;0.67;;;9.10;99.90;;;;;;5055094;28;20619;-72
2021/11/25 02:37:33;;;;;;;0.67;0.67;;;9.20;99.90;;;;;;5068188;28;20215;-72
2021/11/25 02:40:13;;;;;;;0.80;0.80;;;9.10;99.90;;;;;;5066824;28;20209;-72
2021/11/25 02:42:40;;;;;;;0.80;0.77;;;9.10;99.90;;;;;;5052372;28;20307;-71
2021/11/25 02:45:07;;;;;;;0.77;0.70;;;9.10;99.90;;;;;;5066719;28;20615;-72
2021/11/25 02:47:34;;;;;;;1.00;1.00;;;9.10;99.90;;;;;;5061940;28;20220;-72
2021/11/25 02:50:01;;;;;;;0.90;0.90;;;9.10;99.90;;;;;;5063334;28;20502;-72
2021/11/25 02:52:29;;;;;;;0.70;0.70;;;9.10;99.90;;;;;;5059043;28;20230;-72
2021/11/25 02:54:56;;;;;;;0.60;0.60;;;9.10;99.90;;;;;;5064682;28;20260;-72
2021/11/25 02:57:24;;;;;;;0.50;0.50;;;9.10;99.90;;;;;;5058173;28;20271;-72
2021/11/25 02:59:52;;;;;;;0.67;0.67;;;9.10;99.90;;;;;;5062129;28;20214;-72
2021/11/25 03:02:19;;;;;;;1.10;0.60;;;9.10;99.90;;;;;;5054913;28;20229;-72
2021/11/25 03:04:46;;;;;;;0.60;0.60;;;9.10;99.90;;;;;;5065201;28;20198;-72
2021/11/25 03:07:13;;;;;;;0.67;0.63;;;9.10;99.90;;;;;;5054558;28;20733;-72
2021/11/25 03:09:40;;;;;;;0.70;0.70;;;9.20;99.90;;;;;;5061155;28;20195;-72
2021/11/25 03:12:08;;;;;;;0.60;0.60;;;9.20;99.90;;;;;;5050833;28;20297;-72
2021/11/25 03:14:37;;;;;;;0.60;0.60;;;9.20;99.90;;;;;;5059773;28;20616;-72
2021/11/25 03:17:04;;;;;;;0.60;0.60;;;9.20;99.90;;;;;;5054495;28;20231;-72
2021/11/25 03:19:32;;;;;;;0.60;0.60;;;9.20;99.90;;;;;;5058726;28;20199;-72
2021/11/25 03:21:59;;;;;;;0.47;0.47;;;9.20;99.90;;;;;;5051997;28;20221;-72
2021/11/25 03:24:26;;;;;;;0.40;0.40;;;9.20;99.90;;;;;;5057315;28;20900;-72
2021/11/25 03:26:53;;;;;;;0.50;0.50;;;9.20;99.90;;;;;;5045147;28;20281;-72
2021/11/25 03:29:20;;;;;;;0.40;0.40;;;9.20;99.90;;;;;;5052907;28;20577;-72
2021/11/25 03:31:49;;;;;;;0.50;0.50;;;9.20;99.90;;;;;;5044295;28;20228;-72
2021/11/25 03:34:16;;;;;;;0.90;0.73;;;9.20;99.90;;;;;;5049567;28;20234;-72
2021/11/25 03:36:43;;;;;;;0.50;0.50;;;9.30;99.90;;;;;;5067860;28;20226;-72
2021/11/25 03:39:10;;;;;;;1.20;1.10;;;9.30;99.90;;;;;;5065897;28;20204;-72
2021/11/25 03:41:37;;;;;;;2.50;1.50;;;9.30;99.90;;;;;;5056491;28;20207;-72
2021/11/25 03:44:05;;;;;;;1.30;1.20;;;9.20;99.90;;;;;;5058852;28;20290;-73
2021/11/25 03:46:33;;;;;;;2.50;1.50;;;9.10;99.90;;;;;;5065349;28;20202;-72
2021/11/25 03:49:02;;;;;;;2.27;1.90;;;9.10;99.90;;;;;;5058847;28;20649;-72
2021/11/25 03:51:29;;;;;;;2.07;1.80;;;9.10;99.90;;;;;;5061577;28;20276;-73
2021/11/25 03:53:56;;;;;;;2.13;2.00;;;9.10;99.90;;;;;;5058224;28;20615;-72
2021/11/25 03:56:26;;;;;;;1.70;1.60;;;9.10;99.90;;;;;;5062250;28;20224;-72
2021/11/25 03:58:53;;;;;;;2.83;2.50;;;9.10;99.90;;;;;;5052342;28;20199;-72
2021/11/25 04:01:21;;;;;;;2.07;1.90;;;9.00;99.90;;;;;;5059255;28;20293;-72
2021/11/25 04:03:48;;;;;;;1.73;1.63;;;9.00;99.90;;;;;;5042681;28;20239;-72
2021/11/25 04:06:16;;;;;;;1.47;1.37;;;9.10;99.90;;;;;;5047061;28;20200;-72
2021/11/25 04:08:44;;;;;;;1.60;1.50;;;9.40;99.90;;;;;;5050060;28;20196;-72
2021/11/25 04:11:11;;;;;;;1.40;1.30;;;9.20;99.90;;;;;;5059527;28;20288;-73
2021/11/25 04:13:38;;;;;;;1.00;1.00;;;9.10;99.90;;;;;;5054724;28;20289;-72
2021/11/25 04:16:05;;;;;;;1.13;1.13;;;9.10;99.90;;;;;;5056193;28;20224;-72
2021/11/25 04:18:32;;;;;;;1.53;1.40;;;9.10;99.90;;;;;;5050904;28;20264;-72
2021/11/25 04:20:59;;;;;;;3.13;1.40;;;9.10;99.90;;;;;;5055110;28;20704;-72
2021/11/25 04:23:28;;;;;;;1.33;1.30;;;9.10;99.90;;;;;;5044607;28;20199;-73
2021/11/25 04:25:55;;;;;;;1.10;1.10;;;9.10;99.90;;;;;;5053365;28;20301;-73
2021/11/25 04:28:22;;;;;;;1.30;1.20;;;9.10;99.90;;;;;;5042464;28;20205;-72
2021/11/25 04:36:19;;;;;;;1.00;0.97;;;9.10;99.90;;;;;;5064763;28;20581;-72
2021/11/25 04:38:48;;;;;;;0.80;0.80;;;9.20;99.90;;;;;;5065515;28;20283;-72
2021/11/25 04:41:15;;;;;;;1.10;1.00;;;9.10;99.90;;;;;;5059166;28;20196;-73
2021/11/25 04:43:42;;;;;;;0.90;0.90;;;9.20;99.90;;;;;;5059551;28;20265;-72
2021/11/25 04:46:09;;;;;;;1.00;1.00;;;9.20;99.90;;;;;;5063493;28;20197;-72
2021/11/25 04:48:37;;;;;;;0.70;0.70;;;9.10;99.90;;;;;;5060890;28;20833;-72
2021/11/25 04:51:04;;;;;;;0.90;0.90;;;9.20;99.90;;;;;;5059756;28;20287;-72
2021/11/25 04:53:31;;;;;;;1.20;1.10;;;9.10;99.90;;;;;;5059202;28;20235;-73
2021/11/25 04:56:00;;;;;;;1.10;1.00;;;9.10;99.90;;;;;;5058704;28;20754;-72
2021/11/25 04:58:27;;;;;;;1.50;1.40;;;9.10;99.90;;;;;;5055642;28;20272;-72
2021/11/25 05:00:54;;;;;;;1.50;1.40;;;9.10;99.90;;;;;;5056345;28;20243;-72
2021/11/25 05:03:21;;;;;;;1.27;1.17;;;9.10;99.90;;;;;;5045517;28;20279;-72
2021/11/25 05:05:48;;;;;;;1.40;1.30;;;9.10;99.90;;;;;;5054602;28;20585;-72
2021/11/25 05:08:15;;;;;;;1.30;1.20;;;9.10;99.90;;;;;;5051830;28;20292;-73
2021/11/25 05:10:42;;;;;;;1.70;1.60;;;9.00;99.90;;;;;;5051766;28;20211;-73
2021/11/25 05:13:11;;;;;;;1.60;1.50;;;9.00;99.90;;;;;;5048613;28;20206;-72
2021/11/25 05:15:38;;;;;;;3.00;2.53;;;8.90;99.90;;;;;;5051020;28;20217;-72
2021/11/25 05:18:06;;;;;;;2.50;2.30;;;8.90;99.90;;;;;;5046243;28;20210;-72
2021/11/25 05:20:34;;;;;;;2.43;2.23;;;8.90;99.90;;;;;;5049944;28;20579;-73
2021/11/25 05:23:01;;;;;;;2.37;2.17;;;8.90;99.90;;;;;;5050306;28;20253;-72
2021/11/25 05:25:28;;;;;;;1.87;1.70;;;8.90;99.90;;;;;;5047110;28;20214;-72
2021/11/25 05:27:55;;;;;;;1.80;1.70;;;8.90;99.90;;;;;;5041746;28;20206;-72
2021/11/25 05:30:30;;;;;;;1.90;1.80;;;8.80;99.90;;;;;;5044696;28;20211;-72
2021/11/25 05:32:57;;;;;;;1.90;1.80;;;8.80;99.90;;;;;;5038625;28;20200;-72
2021/11/25 05:35:24;;;;;;;1.87;1.77;;;8.80;99.90;;;;;;5060326;28;20293;-72
2021/11/25 05:37:51;;;;;;;2.87;1.93;;;8.80;99.90;;;;;;5069913;28;20194;-72
2021/11/25 05:40:18;;;;;;;1.90;1.80;;;8.80;99.90;;;;;;5069677;28;20559;-73
2021/11/25 05:42:46;;;;;;;2.10;2.00;;;8.80;99.90;;;;;;5065160;28;20523;-72
2021/11/25 05:45:16;;;;;;;1.80;1.70;;;8.80;99.90;;;;;;5067002;28;20224;-72
2021/11/25 05:47:46;;;;;;;3.30;1.97;;;8.80;99.90;;;;;;5065303;28;20614;-72
2021/11/25 05:50:17;;;;;;;1.73;1.63;;;8.80;99.90;;;;;;5063553;28;20213;-72
2021/11/25 05:52:45;;;;;;;1.50;1.40;;;8.80;99.90;;;;;;5063268;28;20302;-72
2021/11/25 05:55:12;;;;;;;1.70;1.60;;;8.80;99.90;;;;;;5059780;28;20232;-72
2021/11/25 05:57:39;;;;;;;1.90;1.63;;;8.80;99.90;;;;;;5062460;28;20213;-72
2021/11/25 06:00:11;;;;;;;1.50;1.40;;;8.80;99.90;;;;;;5057801;28;20649;-72
2021/11/25 06:02:42;;;;;;;1.87;1.77;;;8.80;99.90;;;;;;5045904;28;20218;-72
2021/11/25 06:05:11;;;;;;;2.40;2.20;;;8.80;99.90;;;;;;5041084;28;20288;-72
2021/11/25 06:07:42;;;;;;;2.10;1.90;;;8.70;99.90;;;;;;5035796;28;20252;-72
2021/11/25 06:10:10;;;;;;;5.90;4.03;;;8.80;99.90;;;;;;5050780;28;20194;-72
2021/11/25 06:12:37;;;;;;;5.33;3.97;;;8.70;99.90;;;;;;5060703;28;20700;-72
2021/11/25 06:15:05;;;;;;;3.63;3.33;;;8.70;99.90;;;;;;5050025;28;20227;-72
2021/11/25 06:17:32;;;;;;;3.33;3.03;;;8.70;99.90;;;;;;5059431;28;20229;-72
2021/11/25 06:19:59;;;;;;;2.80;2.60;;;8.70;99.90;;;;;;5049351;28;20285;-71
2021/11/25 06:22:28;;;;;;;4.80;2.57;;;8.70;99.90;;;;;;5059649;28;20192;-72
2021/11/25 06:24:55;;;;;;;2.70;2.50;;;8.70;99.90;;;;;;5046738;28;20186;-72
2021/11/25 06:27:22;;;;;;;2.90;2.57;;;8.70;99.90;;;;;;5056956;28;20590;-72
2021/11/25 06:29:49;;;;;;;4.87;3.30;;;8.70;99.90;;;;;;5042992;28;20264;-72
2021/11/25 06:32:16;;;;;;;3.90;3.30;;;8.70;99.90;;;;;;5051446;28;20259;-71
2021/11/25 06:34:43;;;;;;;3.20;2.90;;;8.70;99.90;;;;;;5041834;28;20227;-72
2021/11/25 06:37:11;;;;;;;3.27;2.73;;;8.70;99.90;;;;;;5067841;28;20648;-72
2021/11/25 06:39:39;;;;;;;3.30;2.90;;;8.70;99.90;;;;;;5067606;28;20205;-72
2021/11/25 06:42:06;;;;;;;2.90;2.57;;;8.60;99.90;;;;;;5053173;28;20677;-72
2021/11/25 06:44:33;;;;;;;3.27;3.00;;;8.60;99.90;;;;;;5064621;28;20195;-71
2021/11/25 06:47:01;;;;;;;3.30;3.00;;;8.60;99.90;;;;;;5064384;28;20220;-72
2021/11/25 06:49:28;;;;;;;3.57;3.27;;;8.60;99.90;;;;;;5064445;28;20271;-72
2021/11/25 06:51:55;;;;;;;5.20;3.97;;;8.60;99.90;;;;;;5060736;28;20640;-71
2021/11/25 06:54:22;;;;;;;3.50;3.20;;;8.60;99.90;;;;;;5062216;28;20242;-72
2021/11/25 06:56:50;;;;;;;4.47;3.63;;;8.60;99.90;;;;;;5062334;28;20240;-71
2021/11/25 06:59:17;;;;;;;3.43;3.10;;;8.60;99.90;;;;;;5060768;28;20320;-72
2021/11/25 07:01:44;;;;;;;4.27;3.47;;;8.50;99.90;;;;;;5058535;28;20684;-72
2021/11/25 07:04:14;;;;;;;3.87;3.37;;;8.50;99.90;;;;;;5048951;28;20199;-71
2021/11/25 07:06:44;;;;;;;3.57;3.27;;;8.50;99.90;;;;;;5056215;28;20195;-72
2021/11/25 07:09:11;;;;;;;3.47;3.17;;;8.50;99.90;;;;;;5059019;28;20635;-71
2021/11/25 07:11:38;;;;;;;4.03;3.30;;;8.50;99.90;;;;;;5054485;28;20277;-72
2021/11/25 07:14:08;;;;;;;4.13;3.73;;;8.50;99.90;;;;;;5055153;28;20750;-72
2021/11/25 07:16:35;;;;;;;4.00;3.60;;;8.50;99.90;;;;;;5050528;28;20231;-72
2021/11/25 07:19:03;;;;;;;3.63;3.33;;;8.50;99.90;;;;;;5054686;28;20207;-72
2021/11/25 07:21:30;;;;;;;5.27;3.93;;;8.50;99.90;;;;;;5053939;28;20551;-72
2021/11/25 07:23:57;;;;;;;5.37;4.30;;;8.50;99.90;;;;;;5054272;28;20913;-71
2021/11/25 07:26:26;;;;;;;4.50;3.73;;;8.40;99.90;;;;;;5047021;28;20207;-72
2021/11/25 07:28:55;;;;;;;4.40;3.43;;;8.40;99.90;;;;;;5052025;28;20292;-71
2021/11/25 07:31:27;;;;;;;4.40;3.53;;;8.40;99.90;;;;;;5044502;28;20703;-72
2021/11/25 07:33:55;;;;;;;4.17;3.57;;;8.40;99.90;;;;;;5043842;28;20197;-72
2021/11/25 07:36:22;;;;;;;4.17;3.40;;;8.40;99.90;;;;;;5065181;28;20233;-72
2021/11/25 07:38:49;;;;;;;5.07;3.87;;;8.40;99.90;;;;;;5065972;28;20215;-71
2021/11/25 07:41:16;;;;;;;4.77;3.77;;;8.40;99.90;;;;;;5065859;28;20301;-72
2021/11/25 07:43:43;;;;;;;6.13;4.20;;;8.40;99.90;;;;;;5062965;28;20661;-71
2021/11/25 07:46:10;;;;;;;5.37;3.60;;;8.50;99.90;;;;;;5062149;28;20201;-71
2021/11/25 07:48:39;;;;;;;8.53;4.47;;;8.40;99.90;;;;;;5062826;28;20244;-71
2021/11/25 07:51:06;;;;;;;5.20;4.03;;;8.40;99.90;;;;;;5061304;28;20201;-72
2021/11/25 07:53:35;;;;;;;4.60;3.63;;;8.40;99.90;;;;;;5059482;28;20196;-71
2021/11/25 07:56:02;;;;;;;6.20;3.90;;;8.40;99.90;;;;;;5058657;28;20237;-71
2021/11/25 07:58:29;;;;;;;4.87;3.80;;;8.40;99.90;;;;;;5056510;28;20204;-71
2021/11/25 08:00:56;;;;;;;3.33;3.03;;;8.40;99.90;;;;;;5057686;28;20257;-72
2021/11/25 08:03:23;;;;;;;5.17;2.93;;;8.40;99.90;;;;;;5045680;28;20737;-72
2021/11/25 08:05:53;;;;;;;3.27;2.93;;;8.40;99.90;;;;;;5055312;28;20189;-71
2021/11/25 08:08:20;;;;;;;3.40;3.00;;;8.40;99.90;;;;;;5051599;28;20217;-72
2021/11/25 08:10:47;;;;;;;2.43;2.23;;;8.40;99.90;;;;;;5053364;28;20231;-71
2021/11/25 08:13:15;;;;;;;2.57;2.37;;;8.40;99.90;;;;;;5047810;28;20202;-72
2021/11/25 08:15:42;;;;;;;4.10;3.07;;;8.50;99.90;;;;;;5052625;28;20191;-71
2021/11/25 08:18:09;;;;;;;3.40;3.10;;;8.50;99.90;;;;;;5047450;28;20222;-72
2021/11/25 08:20:36;;;;;;;5.33;4.17;;;8.50;99.90;;;;;;5052109;28;20205;-72
2021/11/25 08:23:04;;;;;;;4.53;3.73;;;8.40;99.90;;;;;;5047143;28;20273;-72
2021/11/25 08:25:32;;;;;;;7.80;4.10;;;8.50;99.90;;;;;;5049975;28;20429;-72
2021/11/25 08:28:01;;;;;;;4.87;3.33;;;8.50;99.90;;;;;;5044006;28;20580;-72
2021/11/25 08:30:30;;;;;;;4.70;3.20;;;8.50;99.90;;;;;;5050420;28;20691;-72
2021/11/25 08:32:58;;;;;;;5.03;3.10;;;8.50;99.90;;;;;;5040037;28;20230;-72
2021/11/25 08:35:26;;;;;;;6.03;3.40;;;8.50;99.90;;;;;;5058111;28;20689;-72
2021/11/25 08:37:54;;;;;;;5.87;4.20;;;8.50;99.90;;;;;;5064832;28;20245;-72
2021/11/25 08:40:23;;;;;;;5.70;3.90;;;8.50;99.90;;;;;;5066410;28;20571;-72
2021/11/25 08:42:51;;;;;;;4.60;3.67;;;8.50;99.90;;;;;;5054579;28;20200;-72
2021/11/25 08:45:19;;;;;;;3.93;3.50;;;8.40;99.90;;;;;;5061373;28;20297;-71
2021/11/25 08:47:46;;;;;;;4.67;3.37;;;8.40;99.90;;;;;;5062315;28;20197;-72
2021/11/25 08:50:14;;;;;;;5.30;4.03;;;8.40;99.90;;;;;;5059910;28;20299;-72
2021/11/25 08:52:42;;;;;;;5.77;4.13;;;8.40;99.90;;;;;;5060271;28;20194;-72
2021/11/25 08:55:10;;;;;;;8.43;4.63;;;8.40;99.90;;;;;;5058921;28;20621;-71
2021/11/25 08:57:39;;;;;;;6.47;4.77;;;8.40;99.90;;;;;;5058414;28;20278;-71
2021/11/25 09:00:08;;;;;;;9.97;5.43;;;8.40;99.90;;;;;;5056487;28;20526;-72
2021/11/25 09:02:36;;;;;;;9.23;5.70;;;8.30;99.90;;;;;;5052174;28;20680;-72
2021/11/25 09:05:03;;;;;;;8.13;5.17;;;8.30;99.90;;;;;;5049194;28;20705;-72
2021/11/25 09:07:30;;;;;;;7.63;4.90;;;8.30;99.90;;;;;;5076171;28;20205;-72
2021/11/25 09:09:57;;;;;;;5.80;4.27;;;8.30;99.90;;;;;;5053006;28;20261;-72
2021/11/25 09:12:24;;;;;;;5.23;4.43;;;8.30;99.90;;;;;;5056089;28;20201;-72
2021/11/25 09:14:53;;;;;;;7.47;5.10;;;8.30;99.90;;;;;;5051610;28;20198;-72
2021/11/25 09:17:20;;;;;;;8.27;5.03;;;8.30;99.90;;;;;;5056449;28;20209;-72
2021/11/25 09:19:47;;;;;;;8.33;5.50;;;8.20;99.90;;;;;;5050315;28;20206;-71
2021/11/25 09:22:15;;;;;;;7.03;5.00;;;8.20;99.90;;;;;;5061228;28;20194;-71
2021/11/25 09:24:42;;;;;;;5.03;3.83;;;8.20;99.90;;;;;;5049382;28;20218;-72
2021/11/25 09:27:09;;;;;;;8.67;5.47;;;8.20;99.90;;;;;;5052876;28;20242;-72
2021/11/25 09:29:36;;;;;;;6.70;5.03;;;8.20;99.90;;;;;;5046974;28;20231;-72
2021/11/25 09:32:06;;;;;;;9.07;5.83;;;8.20;99.90;;;;;;5047571;28;20327;-72
2021/11/25 09:34:33;;;;;;;8.93;5.20;;;8.20;99.90;;;;;;5053184;28;20616;-72
2021/11/25 09:37:00;;;;;;;6.77;4.37;;;8.10;99.90;;;;;;5069509;28;20219;-72
2021/11/25 09:39:27;;;;;;;5.17;3.60;;;8.10;99.90;;;;;;5068109;28;20201;-72
2021/11/25 09:41:55;;;;;;;5.30;4.07;;;8.20;99.90;;;;;;5067213;28;20308;-72
2021/11/25 09:44:22;;;;;;;5.13;4.10;;;8.20;99.90;;;;;;5063042;28;20221;-72
2021/11/25 09:46:54;;;;;;;5.53;4.33;;;8.20;99.90;;;;;;5066171;28;20288;-72
2021/11/25 09:49:25;;;;;;;5.40;4.03;;;8.20;99.90;;;;;;5062540;28;20577;-72
2021/11/25 09:51:52;;;;;;;4.27;3.63;;;8.20;99.90;;;;;;5063939;28;20205;-72
2021/11/25 09:54:20;;;;;;;6.47;4.20;;;8.30;99.90;;;;;;5061518;28;20209;-71
2021/11/25 09:56:48;;;;;;;10.23;4.87;;;8.30;99.90;;;;;;5061742;28;20712;-71
2021/11/25 09:59:16;;;;;;;7.87;5.10;;;8.30;99.90;;;;;;5060289;28;20239;-72
2021/11/25 10:01:43;;;;;;;6.93;5.20;;;8.20;99.90;;;;;;5057359;28;20212;-71
2021/11/25 10:04:11;;;;;;;4.67;4.10;;;8.20;99.90;;;;;;5047529;28;20193;-72
2021/11/25 10:06:52;;;;;;;6.40;4.60;;;8.30;99.90;;;;;;5055176;28;20606;-72
2021/11/25 10:09:31;;;;;;;7.53;5.07;;;8.30;99.90;;;;;;5057983;28;20927;-71
2021/11/25 10:11:59;;;;;;;9.97;5.90;;;8.30;99.90;;;;;;5045380;28;20209;-72
2021/11/25 10:14:36;;;;;;;8.80;6.20;;;8.30;99.90;;;;;;5056556;28;20288;-72
2021/11/25 10:17:04;;;;;;;10.83;6.60;;;8.20;99.90;;;;;;5050774;28;20678;-71
2021/11/25 10:19:31;;;;;;;7.93;5.23;;;8.20;99.90;;;;;;5050348;28;20710;-72
2021/11/25 10:22:11;;;;;;;9.50;6.60;;;8.10;99.90;;;;;;5044039;28;20674;-72
2021/11/25 10:24:41;;;;;;;7.80;6.00;;;8.10;99.90;;;;;;5043598;28;20257;-71
2021/11/25 10:27:17;;;;;;;8.07;5.63;;;8.10;99.90;;;;;;5046474;28;20694;-72
2021/11/25 10:29:44;;;;;;;7.17;5.27;;;8.20;99.90;;;;;;5040163;28;20637;-72
2021/11/25 10:32:16;;;;;;;9.90;6.33;;;8.20;99.90;;;;;;5043598;28;20214;-72
2021/11/25 10:34:55;;;;;;;7.23;4.77;;;8.20;99.90;;;;;;5042108;28;20911;-71
2021/11/25 10:37:37;;;;;;;9.57;6.10;;;8.20;99.90;;;;;;5067776;28;20297;-71
2021/11/25 10:40:23;;;;;;;9.33;6.37;;;8.20;99.90;;;;;;5068427;28;20714;-72
2021/11/25 10:42:50;;;;;;;8.53;6.07;;;8.10;99.90;;;;;;5053545;28;20229;-72
2021/11/25 10:45:19;;;;;;;6.40;4.93;;;8.10;99.90;;;;;;5064022;28;20276;-72
2021/11/25 10:47:56;;;;;;;9.37;6.40;;;8.20;99.90;;;;;;5061265;28;20595;-71
2021/11/25 10:50:23;;;;;;;8.33;6.30;;;8.20;99.90;;;;;;5059947;28;20193;-71
2021/11/25 10:52:53;;;;;;;8.00;5.70;;;8.20;99.90;;;;;;5063246;28;20204;-72
2021/11/25 10:55:22;;;;;;;6.13;4.53;;;8.20;99.90;;;;;;5056062;28;20349;-72
2021/11/25 10:57:52;;;;;;;4.00;3.60;;;8.20;99.90;;;;;;5061763;28;20219;-72
2021/11/25 11:00:24;;;;;;;4.93;3.93;;;8.20;99.90;;;;;;5054410;28;20209;-71
2021/11/25 11:03:04;;;;;;;4.00;3.60;;;8.20;99.90;;;;;;5046900;28;20198;-72
2021/11/25 11:05:32;;;;;;;6.10;4.80;;;8.30;99.90;;;;;;5049224;28;20217;-72
2021/11/25 11:08:06;;;;;;;7.27;5.57;;;8.30;99.90;;;;;;5058676;28;20197;-72
2021/11/25 11:10:33;;;;;;;6.70;5.30;;;8.30;99.90;;;;;;5051329;28;20315;-72
2021/11/25 11:13:13;;;;;;;5.47;4.53;;;8.20;99.90;;;;;;5056110;28;20197;-71
2021/11/25 11:15:55;;;;;;;6.93;5.03;;;8.20;99.90;;;;;;5051744;28;20363;-72
2021/11/25 11:18:44;;;;;;;6.23;4.53;;;8.20;99.90;;;;;;5045810;28;20232;-72
2021/11/25 11:21:34;;;;;;;7.57;4.97;;;8.30;99.90;;;;;;5050760;28;20204;-72
2021/11/25 11:24:05;;;;;;;7.17;4.93;;;8.30;99.90;;;;;;5053027;28;20209;-72
2021/11/25 11:26:32;;;;;;;15.70;6.03;;;8.20;99.90;;;;;;5043043;28;20234;-71
2021/11/25 11:29:00;;;;;;;11.53;6.43;;;8.20;99.90;;;;;;5050859;28;20605;-71
2021/11/25 11:31:27;;;;;;;10.30;6.10;;;8.20;99.90;;;;;;5040405;28;20217;-72
2021/11/25 11:33:55;;;;;;;9.13;5.47;;;8.10;99.90;;;;;;5042520;28;20251;-71
2021/11/25 11:36:24;;;;;;;8.37;5.27;;;8.10;99.90;;;;;;5066183;28;20231;-71
2021/11/25 11:38:52;;;;;;;7.23;5.37;;;8.10;99.90;;;;;;5067478;28;20209;-72
2021/11/25 11:41:21;;;;;;;9.43;6.07;;;8.10;99.90;;;;;;5066711;28;20507;-72
2021/11/25 11:43:48;;;;;;;9.33;6.10;;;8.10;99.90;;;;;;5064245;28;20283;-72
2021/11/25 11:46:16;;;;;;;7.03;5.30;;;8.20;99.90;;;;;;5064787;28;20198;-72
2021/11/25 11:48:44;;;;;;;8.50;5.47;;;8.20;99.90;;;;;;5062441;28;20193;-72
2021/11/25 11:51:14;;;;;;;7.33;5.27;;;8.20;99.90;;;;;;5062383;28;20221;-71
2021/11/25 11:53:42;;;;;;;8.60;6.17;;;8.20;99.90;;;;;;5058562;28;20203;-72
2021/11/25 11:56:12;;;;;;;8.77;5.70;;;8.10;99.90;;;;;;5062164;28;20230;-71
2021/11/25 11:58:48;;;;;;;8.63;6.03;;;8.10;99.90;;;;;;5056032;28;20231;-71
2021/11/25 12:01:23;;;;;;;9.00;5.87;;;8.10;99.90;;;;;;5054230;28;20208;-72
2021/11/25 12:03:53;;;;;;;7.13;5.20;;;8.10;99.90;;;;;;5045302;28;20191;-71
2021/11/25 12:06:40;;;;;;;8.20;5.20;;;8.10;99.90;;;;;;5057402;28;20583;-71
2021/11/25 12:09:33;;;;;;;8.50;5.27;;;8.10;99.90;;;;;;5075218;28;20209;-71
2021/11/25 12:12:11;;;;;;;9.33;5.90;;;8.20;99.90;;;;;;5047826;28;20209;-71
2021/11/25 12:14:49;;;;;;;8.90;5.57;;;8.20;99.90;;;;;;5054684;28;20227;-71
2021/11/25 12:17:25;;;;;;;6.97;4.63;;;8.20;99.90;;;;;;5052079;28;20200;-71
2021/11/25 12:19:53;;;;;;;5.73;4.60;;;8.10;99.90;;;;;;5046997;28;20194;-71
2021/11/25 12:22:21;;;;;;;9.97;5.63;;;8.10;99.90;;;;;;5052729;28;20209;-71
2021/11/25 12:24:51;;;;;;;8.60;5.53;;;8.20;99.90;;;;;;5044418;28;20264;-71
2021/11/25 12:27:22;;;;;;;9.33;6.30;;;8.10;99.90;;;;;;5050974;28;20193;-71
2021/11/25 12:30:04;;;;;;;5.70;4.53;;;8.10;99.90;;;;;;5037846;28;20226;-71
2021/11/25 12:32:40;;;;;;;5.63;4.20;;;8.10;99.90;;;;;;5041836;28;20687;-72
2021/11/25 12:35:45;;;;;;;8.93;5.40;;;8.10;99.90;;;;;;5055592;28;20205;-72
2021/11/25 12:38:17;;;;;;;10.87;6.40;;;8.10;99.90;;;;;;5044306;28;20208;-72
2021/11/25 12:40:56;;;;;;;10.87;6.03;;;8.10;99.90;;;;;;5062086;28;20337;-72
2021/11/25 12:43:25;;;;;;;7.30;5.30;;;8.10;99.90;;;;;;5062879;28;20545;-71
2021/11/25 12:45:55;;;;;;;7.43;5.10;;;8.10;99.90;;;;;;5051074;28;20299;-72
2021/11/25 12:48:31;;;;;;;6.82;4.40;;;8.10;99.90;;;;;;5042435;28;20486;-72
2021/11/25 12:51:02;;;;;;;6.07;4.57;;;8.10;99.90;;;;;;5040465;28;20192;-71
2021/11/25 12:53:33;;;;;;;4.50;3.70;;;8.00;99.90;;;;;;5044128;28;20391;-71
2021/11/25 12:56:07;;;;;;;5.13;4.13;;;8.10;99.90;;;;;;5047632;28;20436;-72
2021/11/25 12:58:41;;;;;;;5.30;3.90;;;8.10;99.90;;;;;;5042271;28;20221;-72
2021/11/25 13:01:14;;;;;;;7.68;4.93;;;8.10;99.90;;;;;;5084554;28;20904;-72
2021/11/25 13:03:42;;;;;;;7.05;4.82;;;8.10;99.90;;;;;;5049261;28;20435;-72
2021/11/25 13:06:09;;;;;;;7.67;5.00;;;8.10;99.90;;;;;;5045880;28;20281;-72
2021/11/25 13:08:39;;;;;;;8.63;5.07;;;8.20;99.90;;;;;;5045932;28;20267;-72
2021/11/25 13:11:14;;;;;;;7.83;5.60;;;8.20;99.90;;;;;;5041650;28;20282;-72
2021/11/25 13:13:42;;;;;;;7.27;4.80;;;8.20;99.90;;;;;;5041231;28;20575;-73